Time;durP1;ratioP1;P1;durP2;ratioP2;P2;SDS_P1;SDS_P2;PMS_P1;PMS_P2;Temp;Humidity;BMP_temperature;BMP_pressure;BME280_temperature;BME280_humidity;BME280_pressure;Samples;Min_cycle;Max_cycle;Signal;HPM_P1;HPM_P2
2023/12/15 00:02:05;;;;;;;20.80;12.20;;;;;;;7.07;100.00;98656.76;78249;1294;3028285;-63
2023/12/15 00:05:12;;;;;;;22.50;12.20;;;;;;;7.04;100.00;98663.17;80036;1302;3013480;-65
2023/12/15 00:07:39;;;;;;;19.10;11.20;;;;;;;6.62;100.00;98671.70;78996;1300;3021283;-64
2023/12/15 00:10:07;;;;;;;15.70;8.40;;;;;;;6.44;100.00;98672.84;79175;1302;3013192;-63
2023/12/15 00:12:35;;;;;;;13.30;7.30;;;;;;;6.98;100.00;98667.55;77999;1304;3052555;-64
2023/12/15 00:15:02;;;;;;;14.30;7.80;;;;;;;7.11;100.00;98664.33;79433;1301;3020480;-62
2023/12/15 00:17:29;;;;;;;10.10;6.70;;;;;;;7.01;100.00;98668.41;76799;1304;3509101;-63
2023/12/15 00:19:58;;;;;;;12.40;6.80;;;;;;;6.90;100.00;98672.18;78334;1300;3026094;-66
2023/12/15 00:22:24;;;;;;;10.10;5.90;;;;;;;6.68;100.00;98674.98;79245;1298;3019057;-62
2023/12/15 00:24:51;;;;;;;7.00;4.30;;;;;;;7.08;100.00;98676.50;79281;1298;3011774;-62
2023/12/15 00:27:19;;;;;;;8.00;4.30;;;;;;;7.26;100.00;98673.36;78214;1301;3027890;-62
2023/12/15 00:29:46;;;;;;;6.70;4.90;;;;;;;7.23;100.00;98668.88;79260;1301;3013582;-61
2023/12/15 00:32:13;;;;;;;7.90;5.00;;;;;;;7.15;100.00;98670.55;79224;1301;3011575;-62
2023/12/15 00:34:41;;;;;;;7.60;4.50;;;;;;;7.12;100.00;98672.99;78331;1298;3027543;-64
2023/12/15 00:37:07;;;;;;;6.50;3.70;;;;;;;7.01;100.00;98680.05;79498;1298;3018830;-63
2023/12/15 00:39:37;;;;;;;5.40;3.50;;;;;;;7.43;100.00;98677.38;79591;1298;3011676;-63
2023/12/15 00:42:05;;;;;;;3.60;2.80;;;;;;;7.64;100.00;98675.30;78269;1298;3051837;-62
2023/12/15 00:44:33;;;;;;;6.10;3.30;;;;;;;7.60;100.00;98674.46;79429;1295;3021236;-65
2023/12/15 00:47:00;;;;;;;5.20;4.00;;;;;;;7.62;100.00;98669.81;79422;1294;3013080;-62
2023/12/15 00:49:28;;;;;;;5.40;3.60;;;;;;;7.15;100.00;98676.44;78503;1298;3049564;-63
2023/12/15 00:51:55;;;;;;;5.20;3.10;;;;;;;7.00;100.00;98683.05;79577;1295;3018299;-63
2023/12/15 00:54:22;;;;;;;4.90;2.60;;;;;;;7.37;100.00;98682.66;79445;1298;3013151;-63
2023/12/15 00:56:50;;;;;;;5.20;3.10;;;;;;;7.61;100.00;98682.09;78312;1298;3029229;-65
2023/12/15 00:59:17;;;;;;;3.70;3.10;;;;;;;7.55;100.00;98687.14;79647;1295;3018361;-64
2023/12/15 01:01:44;;;;;;;6.80;3.60;;;;;;;7.38;100.00;98689.17;79615;1295;3011496;-67
2023/12/15 01:04:12;;;;;;;6.70;3.40;;;;;;;7.32;100.00;98699.31;78436;1298;3048847;-64
2023/12/15 01:06:39;;;;;;;3.60;2.60;;;;;;;7.24;100.00;98701.58;79659;1298;3018929;-63
2023/12/15 01:09:06;;;;;;;4.90;3.00;;;;;;;7.51;100.00;98704.11;79379;1298;3013285;-65
2023/12/15 01:11:34;;;;;;;3.30;2.50;;;;;;;7.84;99.68;98703.52;78217;1298;3026313;-63
2023/12/15 01:14:01;;;;;;;6.70;2.80;;;;;;;7.93;99.30;98708.91;79432;1296;3018665;-65
2023/12/15 01:16:28;;;;;;;3.90;3.00;;;;;;;7.67;99.57;98708.56;79388;1299;3011929;-63
2023/12/15 01:18:56;;;;;;;5.00;3.10;;;;;;;7.54;100.00;98705.53;78269;1301;3028415;-63
2023/12/15 01:21:22;;;;;;;4.70;2.40;;;;;;;7.46;100.00;98708.10;79472;1295;3018270;-62
2023/12/15 01:23:49;;;;;;;3.00;2.20;;;;;;;7.92;100.00;98717.32;79290;1295;3013420;-63
2023/12/15 01:26:18;;;;;;;3.50;2.50;;;;;;;8.71;96.31;98728.98;78217;1301;3028214;-61
2023/12/15 01:28:45;;;;;;;3.70;2.60;;;;;;;8.34;93.87;98737.77;79366;1295;3013447;-63
2023/12/15 01:31:13;;;;;;;5.00;3.00;;;;;;;7.81;90.33;98741.00;79421;1299;3012802;-63
2023/12/15 01:33:41;;;;;;;6.00;3.60;;;;;;;7.07;90.38;98749.02;78500;1298;3049520;-65
2023/12/15 01:36:08;;;;;;;5.10;3.60;;;;;;;6.37;91.30;98745.13;79526;1296;3013731;-65
2023/12/15 01:38:35;;;;;;;5.30;3.30;;;;;;;5.71;91.84;98750.65;79417;1301;3011481;-65
2023/12/15 01:41:04;;;;;;;7.20;3.60;;;;;;;5.25;93.00;98764.25;78157;1300;3025695;-62
2023/12/15 01:43:31;;;;;;;7.90;4.90;;;;;;;4.97;94.41;98767.59;79437;1298;3013872;-66
2023/12/15 01:45:57;;;;;;;5.30;3.40;;;;;;;5.35;92.90;98770.92;79415;1300;3012712;-63
2023/12/15 01:48:26;;;;;;;6.50;4.20;;;;;;;5.25;91.77;98770.70;78144;1295;3048553;-63
2023/12/15 01:50:52;;;;;;;7.80;4.90;;;;;;;5.10;91.44;98775.77;79326;1295;3013606;-64
2023/12/15 01:53:20;;;;;;;9.60;6.00;;;;;;;4.69;92.39;98769.77;79456;1301;3011655;-62
2023/12/15 01:55:48;;;;;;;11.30;6.70;;;;;;;4.23;94.28;98764.09;78364;1300;3052422;-62
2023/12/15 01:58:15;;;;;;;10.60;5.20;;;;;;;3.92;95.75;98762.02;79311;1301;3012942;-64
2023/12/15 02:00:47;;;;;;;17.70;10.50;;;;;;;4.04;96.50;98768.06;79318;1298;3013163;-63
2023/12/15 02:03:19;;;;;;;32.00;16.60;;;;;;;4.33;94.54;98761.05;78157;1300;3049108;-62
2023/12/15 02:05:46;;;;;;;33.20;16.60;;;;;;;4.12;94.78;98772.39;79474;1299;3012857;-62
2023/12/15 02:08:13;;;;;;;37.00;18.90;;;;;;;4.02;95.09;98782.35;79392;1301;3011584;-65
2023/12/15 02:10:41;;;;;;;32.40;17.40;;;;;;;3.88;95.29;98776.60;78274;1300;3027168;-61
2023/12/15 02:13:09;;;;;;;27.20;13.60;;;;;;;3.62;95.99;98774.59;79413;1298;3013256;-63
2023/12/15 02:15:35;;;;;;;32.10;16.70;;;;;;;3.52;96.68;98777.77;79346;1298;3011629;-63
2023/12/15 02:18:04;;;;;;;41.80;18.90;;;;;;;3.93;96.20;98781.38;78167;1301;3048767;-64
2023/12/15 02:20:30;;;;;;;39.50;20.90;;;;;;;4.03;94.50;98783.18;79352;1299;3018641;-63
2023/12/15 02:22:59;;;;;;;43.60;23.20;;;;;;;4.02;94.00;98798.14;79369;1295;3013023;-63
2023/12/15 02:25:27;;;;;;;30.50;15.70;;;;;;;3.65;93.94;98794.55;78144;1301;3052793;-63
2023/12/15 02:27:54;;;;;;;25.80;12.20;;;;;;;3.24;94.51;98789.69;79456;1298;3013452;-62
2023/12/15 02:30:20;;;;;;;12.60;6.90;;;;;;;2.93;95.06;98804.60;79347;1301;3011761;-63
2023/12/15 02:32:48;;;;;;;20.90;11.60;;;;;;;3.16;94.89;98810.26;78120;1301;3026474;-62
2023/12/15 02:35:16;;;;;;;28.80;14.60;;;;;;;3.32;93.08;98810.30;79448;1301;3013738;-63
2023/12/15 02:37:43;;;;;;;24.70;13.80;;;;;;;3.19;92.91;98811.52;79385;1296;3013668;-64
2023/12/15 02:40:12;;;;;;;19.10;10.60;;;;;;;2.88;94.29;98818.65;78247;1301;3052639;-63
2023/12/15 02:42:39;;;;;;;11.80;7.60;;;;;;;2.65;94.76;98812.42;79583;1299;3015828;-64
2023/12/15 02:45:07;;;;;;;8.80;5.10;;;;;;;2.40;96.04;98803.38;79468;1295;3012143;-63
2023/12/15 02:47:35;;;;;;;4.40;3.10;;;;;;;2.64;96.86;98814.55;78400;1299;3048785;-64
2023/12/15 02:50:02;;;;;;;4.90;2.90;;;;;;;3.06;94.85;98817.93;79436;1296;3013346;-61
2023/12/15 02:52:32;;;;;;;5.50;3.70;;;;;;;2.83;94.08;98835.97;79431;1295;3011947;-67
2023/12/15 02:55:00;;;;;;;5.90;4.10;;;;;;;2.71;95.06;98834.54;78128;1301;3052723;-64
2023/12/15 02:57:27;;;;;;;9.00;4.80;;;;;;;2.57;95.83;98845.44;79404;1299;3013373;-62
2023/12/15 02:59:54;;;;;;;8.40;4.10;;;;;;;2.35;96.34;98843.50;79416;1301;3013150;-64
2023/12/15 03:02:22;;;;;;;7.20;3.90;;;;;;;2.30;97.74;98840.23;78119;1298;3025252;-62
2023/12/15 03:04:49;;;;;;;7.80;4.70;;;;;;;2.65;97.18;98834.92;79516;1298;3018501;-63
2023/12/15 03:07:16;;;;;;;9.20;5.70;;;;;;;2.86;95.89;98828.06;79573;1296;3011990;-62
2023/12/15 03:09:44;;;;;;;7.50;5.00;;;;;;;2.87;95.38;98845.33;78481;1295;3050793;-62
2023/12/15 03:12:11;;;;;;;9.70;6.80;;;;;;;2.56;95.85;98857.39;79548;1295;3015140;-63
2023/12/15 03:14:38;;;;;;;9.10;6.30;;;;;;;2.33;96.21;98860.68;79422;1296;3011652;-62
2023/12/15 03:17:06;;;;;;;8.10;5.40;;;;;;;2.19;96.86;98871.89;78211;1301;3028126;-64
2023/12/15 03:19:33;;;;;;;9.60;6.10;;;;;;;2.67;96.13;98869.96;79375;1300;3012926;-63
2023/12/15 03:22:00;;;;;;;10.10;6.40;;;;;;;2.78;94.44;98889.61;79473;1296;3011678;-63
2023/12/15 03:24:27;;;;;;;9.60;6.40;;;;;;;2.58;94.49;98892.60;78400;1301;3025515;-64
2023/12/15 03:26:54;;;;;;;10.40;6.80;;;;;;;2.27;95.00;98902.69;79589;1298;3012858;-64
2023/12/15 03:29:21;;;;;;;12.60;7.80;;;;;;;2.15;95.64;98910.38;79371;1298;3013314;-65
2023/12/15 03:31:49;;;;;;;9.70;5.50;;;;;;;2.05;96.22;98906.76;78248;1295;3026150;-63
2023/12/15 03:34:16;;;;;;;9.90;6.30;;;;;;;2.21;96.85;98910.02;79597;1301;3013107;-65
2023/12/15 03:36:43;;;;;;;10.10;6.60;;;;;;;2.45;95.41;98916.93;79571;1301;3011628;-62
2023/12/15 03:39:11;;;;;;;12.20;7.80;;;;;;;2.46;94.50;98912.23;78230;1300;3026178;-64
2023/12/15 03:41:38;;;;;;;11.60;7.30;;;;;;;2.18;94.85;98912.34;79840;1301;3013682;-62
2023/12/15 03:44:05;;;;;;;14.40;9.00;;;;;;;1.91;95.99;98912.94;79524;1300;3012770;-64
2023/12/15 03:46:33;;;;;;;14.20;7.70;;;;;;;1.87;96.48;98917.91;78264;1299;3027502;-64
2023/12/15 03:49:00;;;;;;;12.50;7.20;;;;;;;1.78;97.13;98920.48;79421;1299;3013525;-66
2023/12/15 03:51:27;;;;;;;14.10;9.00;;;;;;;2.14;96.39;98923.72;79587;1300;3013241;-66
2023/12/15 03:53:55;;;;;;;17.50;10.40;;;;;;;2.44;94.91;98921.30;78252;1298;3027488;-68
2023/12/15 03:56:25;;;;;;;13.80;8.80;;;;;;;2.27;94.03;98932.77;79627;1299;3013299;-63
2023/12/15 03:58:54;;;;;;;19.90;9.70;;;;;;;1.88;95.11;98952.94;78891;1301;3011761;-64
2023/12/15 04:01:21;;;;;;;15.20;9.20;;;;;;;1.54;96.58;98953.34;79591;1295;3013423;-68
2023/12/15 04:03:48;;;;;;;13.80;8.10;;;;;;;1.33;97.54;98970.06;79486;1296;3013680;-65
2023/12/15 04:06:16;;;;;;;15.80;8.90;;;;;;;1.46;98.33;98975.51;78193;1295;3028547;-65
2023/12/15 04:08:43;;;;;;;20.00;11.20;;;;;;;1.70;97.38;98983.21;79447;1299;3013331;-64
2023/12/15 04:11:10;;;;;;;17.20;9.50;;;;;;;1.73;96.69;98980.54;79568;1299;3011538;-64
2023/12/15 04:13:38;;;;;;;21.90;11.50;;;;;;;1.69;96.43;98976.87;78375;1299;3029193;-65
2023/12/15 04:16:06;;;;;;;18.40;11.70;;;;;;;1.69;96.56;98970.66;79480;1299;3013954;-64
2023/12/15 04:18:33;;;;;;;21.20;11.30;;;;;;;1.57;96.59;98987.09;79530;1295;3011683;-64
2023/12/15 04:21:03;;;;;;;21.70;11.80;;;;;;;1.28;97.78;98995.39;78325;1300;3048929;-65
2023/12/15 04:23:30;;;;;;;20.10;10.00;;;;;;;1.96;96.78;98988.59;79700;1298;3011860;-63
2023/12/15 04:26:00;;;;;;;18.20;10.40;;;;;;;2.13;94.34;98998.23;79094;1298;3012211;-65
2023/12/15 04:28:27;;;;;;;16.10;9.80;;;;;;;1.99;93.81;99010.08;79530;1296;3013084;-64
2023/12/15 04:30:53;;;;;;;16.80;11.10;;;;;;;1.94;93.62;99020.59;79643;1298;3015896;-66
2023/12/15 04:33:21;;;;;;;22.40;12.40;;;;;;;1.71;93.82;99025.48;78315;1298;3025940;-65
2023/12/15 04:35:48;;;;;;;18.30;10.10;;;;;;;1.57;94.13;99018.69;79549;1301;3018276;-65
2023/12/15 04:38:14;;;;;;;20.40;10.00;;;;;;;1.18;95.68;99011.73;79581;1302;3011544;-66
2023/12/15 04:40:42;;;;;;;15.80;8.90;;;;;;;1.48;95.61;99004.11;78392;1301;3025584;-64
2023/12/15 04:43:10;;;;;;;13.50;8.20;;;;;;;1.58;93.97;99006.21;79359;1299;3014641;-64
2023/12/15 04:45:37;;;;;;;14.30;7.70;;;;;;;1.54;93.05;99018.08;79494;1296;3011844;-63
2023/12/15 04:48:05;;;;;;;15.30;9.50;;;;;;;1.06;93.67;99033.48;78123;1300;3049491;-63
2023/12/15 04:50:32;;;;;;;15.20;8.00;;;;;;;0.63;95.25;99028.96;79483;1298;3013399;-64
2023/12/15 04:52:59;;;;;;;14.40;8.00;;;;;;;0.38;95.82;99023.42;79542;1298;3012637;-64
2023/12/15 04:55:26;;;;;;;12.40;5.60;;;;;;;0.41;95.65;99034.89;78272;1298;3027256;-64
2023/12/15 04:57:53;;;;;;;13.40;8.00;;;;;;;0.75;95.41;99036.05;79523;1301;3012901;-65
2023/12/15 05:00:20;;;;;;;15.90;7.50;;;;;;;1.05;92.58;99026.27;79596;1300;3011943;-65
2023/12/15 05:02:49;;;;;;;9.10;6.10;;;;;;;1.17;91.22;99026.44;78429;1301;3027541;-65
2023/12/15 05:05:16;;;;;;;11.00;6.80;;;;;;;0.98;90.61;99032.48;79556;1308;3012125;-64
2023/12/15 05:07:42;;;;;;;10.00;6.80;;;;;;;0.59;91.09;99030.83;79568;1298;3013598;-65
2023/12/15 05:10:10;;;;;;;9.60;6.90;;;;;;;0.30;91.81;99026.75;78239;1298;3051354;-63
2023/12/15 05:12:37;;;;;;;10.20;6.70;;;;;;;0.30;92.10;99031.05;79662;1299;3013512;-67
2023/12/15 05:15:04;;;;;;;8.00;5.10;;;;;;;0.01;92.33;99045.55;79595;1296;3012884;-66
2023/12/15 05:17:33;;;;;;;10.10;6.10;;;;;;;0.46;92.40;99040.95;78426;1295;3049202;-69
2023/12/15 05:20:02;;;;;;;10.00;5.90;;;;;;;0.82;89.26;99038.64;79675;1298;3018279;-65
2023/12/15 05:22:29;;;;;;;6.40;4.40;;;;;;;0.50;88.59;99062.39;79581;1300;3013778;-67
2023/12/15 05:24:57;;;;;;;9.00;5.60;;;;;;;0.09;89.44;99056.87;78358;1301;3051173;-66
2023/12/15 05:27:24;;;;;;;8.40;5.00;;;;;;;0.07;90.06;99050.23;79573;1301;3013399;-65
2023/12/15 05:29:50;;;;;;;7.50;5.10;;;;;;;-0.29;90.17;99056.76;79689;1298;3011415;-64
2023/12/15 05:32:18;;;;;;;7.50;4.80;;;;;;;-0.37;90.11;99070.19;78198;1301;3026546;-64
2023/12/15 05:34:45;;;;;;;7.00;4.20;;;;;;;-0.58;90.66;99063.40;79604;1298;3011637;-64
2023/12/15 05:37:13;;;;;;;10.20;4.90;;;;;;;-0.22;90.25;99061.73;79517;1301;3014374;-63
2023/12/15 05:39:42;;;;;;;4.70;3.50;;;;;;;0.22;88.54;99066.74;78411;1302;3026330;-64
2023/12/15 05:42:09;;;;;;;6.20;3.90;;;;;;;0.28;87.04;99085.71;79793;1299;3013126;-65
2023/12/15 05:44:39;;;;;;;9.50;4.90;;;;;;;-0.01;87.26;99084.67;79684;1298;3012935;-64
2023/12/15 05:47:07;;;;;;;8.20;4.40;;;;;;;-0.30;88.22;99091.53;78450;1298;3049466;-65
2023/12/15 05:49:38;;;;;;;7.70;5.00;;;;;;;-0.37;89.44;99113.03;79767;1296;3012738;-66
2023/12/15 05:52:09;;;;;;;12.00;6.50;;;;;;;-0.53;89.90;99122.48;78603;1298;3051877;-64
2023/12/15 05:54:39;;;;;;;11.50;5.40;;;;;;;-0.70;90.85;99118.20;79693;1306;3011935;-67
2023/12/15 05:57:07;;;;;;;8.70;5.20;;;;;;;-0.78;91.86;99117.14;78452;1300;3068130;-65
2023/12/15 05:59:34;;;;;;;8.60;5.50;;;;;;;-0.15;90.45;99114.95;79724;1295;3013803;-65
2023/12/15 06:02:01;;;;;;;12.30;5.40;;;;;;;0.07;88.07;99121.18;79702;1295;3013613;-65
2023/12/15 06:04:29;;;;;;;11.80;6.00;;;;;;;0.05;87.53;99123.46;78392;1295;3026198;-63
2023/12/15 06:06:56;;;;;;;9.90;5.90;;;;;;;-0.31;87.03;99130.80;79526;1307;3013538;-64
2023/12/15 06:09:23;;;;;;;12.80;7.20;;;;;;;-0.30;87.33;99126.65;79697;1306;3011652;-64
2023/12/15 06:11:52;;;;;;;9.70;5.00;;;;;;;-0.43;86.95;99132.77;78384;1294;3025523;-63
2023/12/15 06:14:22;;;;;;;9.00;5.60;;;;;;;-0.78;87.88;99138.30;79745;1295;3012660;-64
2023/12/15 06:16:51;;;;;;;14.40;8.20;;;;;;;-1.08;88.52;99145.38;78600;1295;3054809;-66
2023/12/15 06:19:18;;;;;;;10.20;5.50;;;;;;;-1.11;90.14;99142.19;79703;1299;3012976;-65
2023/12/15 06:21:44;;;;;;;10.30;5.30;;;;;;;-0.31;89.39;99144.91;79577;1298;3013003;-65
2023/12/15 06:24:12;;;;;;;8.50;5.20;;;;;;;0.01;86.55;99158.52;78407;1295;3052925;-65
2023/12/15 06:26:39;;;;;;;9.30;5.80;;;;;;;-0.08;85.49;99161.12;79560;1294;3013569;-65
2023/12/15 06:29:06;;;;;;;10.60;5.30;;;;;;;-0.41;85.54;99170.23;79725;1298;3012259;-63
2023/12/15 06:31:34;;;;;;;7.70;4.20;;;;;;;-0.74;86.09;99173.13;78435;1298;3025191;-66
2023/12/15 06:34:00;;;;;;;13.70;6.00;;;;;;;-0.82;86.62;99168.48;79668;1296;3013085;-66
2023/12/15 06:36:27;;;;;;;11.00;6.20;;;;;;;-0.92;86.95;99170.90;79692;1295;3011657;-66
2023/12/15 06:38:55;;;;;;;10.30;5.70;;;;;;;-1.26;88.23;99169.62;78374;1298;3025787;-66
2023/12/15 06:41:22;;;;;;;9.50;5.90;;;;;;;-1.47;89.52;99171.52;79703;1300;3013371;-70
2023/12/15 06:43:48;;;;;;;12.30;4.90;;;;;;;-1.45;90.48;99178.35;79611;1295;3011525;-68
2023/12/15 06:46:17;;;;;;;7.00;4.20;;;;;;;-0.76;89.58;99175.41;78546;1299;3025167;-64
2023/12/15 06:48:43;;;;;;;13.20;4.90;;;;;;;-0.22;86.83;99182.23;79746;1302;3012801;-69
2023/12/15 06:51:10;;;;;;;5.20;3.70;;;;;;;-0.34;85.18;99186.80;79736;1298;3011520;-65
2023/12/15 06:53:38;;;;;;;5.60;3.30;;;;;;;-0.68;84.15;99185.06;78401;1301;3028401;-65
2023/12/15 06:56:05;;;;;;;8.10;3.70;;;;;;;-0.87;84.28;99178.55;79674;1298;3012572;-65
2023/12/15 06:58:32;;;;;;;8.60;3.80;;;;;;;-1.32;85.20;99200.30;79824;1298;3011699;-65
2023/12/15 07:01:00;;;;;;;6.00;3.60;;;;;;;-1.37;85.58;99206.23;78476;1296;3026111;-66
2023/12/15 07:03:29;;;;;;;8.50;4.00;;;;;;;-1.43;85.67;99199.96;79749;1294;3011561;-67
2023/12/15 07:05:55;;;;;;;5.30;3.60;;;;;;;-1.60;86.05;99201.44;79726;1295;3011434;-69
2023/12/15 07:08:23;;;;;;;5.20;3.30;;;;;;;-1.70;86.44;99203.98;78612;1300;3053117;-63
2023/12/15 07:10:50;;;;;;;8.50;3.50;;;;;;;-1.52;86.93;99206.80;79727;1298;3020517;-66
2023/12/15 07:13:17;;;;;;;9.80;3.30;;;;;;;-1.02;85.10;99215.61;79638;1298;3011700;-63
2023/12/15 07:15:45;;;;;;;12.70;4.20;;;;;;;-1.05;84.15;99227.02;78404;1298;3025720;-64
2023/12/15 07:18:11;;;;;;;7.10;3.60;;;;;;;-1.19;83.94;99216.40;79678;1295;3019326;-66
2023/12/15 07:20:38;;;;;;;12.40;4.10;;;;;;;-1.54;84.79;99210.80;79653;1298;3013403;-67
2023/12/15 07:23:07;;;;;;;7.70;4.20;;;;;;;-1.55;85.10;99221.63;78464;1298;3025925;-67
2023/12/15 07:25:34;;;;;;;8.00;3.60;;;;;;;-1.63;85.68;99236.17;79885;1296;3013719;-70
2023/12/15 07:28:00;;;;;;;12.50;4.50;;;;;;;-1.84;86.19;99242.30;79660;1295;3013337;-66
2023/12/15 07:30:28;;;;;;;8.70;4.50;;;;;;;-2.01;86.76;99258.67;78559;1295;3056790;-66
2023/12/15 07:32:55;;;;;;;4.90;3.30;;;;;;;-2.21;87.54;99262.52;79739;1296;3013466;-66
2023/12/15 07:35:23;;;;;;;9.80;4.60;;;;;;;-1.92;87.87;99269.36;79692;1295;3011669;-67
2023/12/15 07:37:51;;;;;;;8.70;4.30;;;;;;;-1.49;86.16;99273.77;78488;1298;3053347;-70
2023/12/15 07:40:18;;;;;;;7.60;4.50;;;;;;;-1.36;84.80;99274.26;79664;1298;3013082;-67
2023/12/15 07:42:45;;;;;;;11.30;5.20;;;;;;;-1.58;84.98;99279.04;79630;1299;3011657;-67
2023/12/15 07:45:13;;;;;;;12.00;5.90;;;;;;;-1.64;85.43;99283.61;78303;1298;3028496;-63
2023/12/15 07:47:40;;;;;;;10.50;5.70;;;;;;;-1.82;85.62;99279.20;79420;1296;3012868;-65
2023/12/15 07:50:07;;;;;;;9.80;4.80;;;;;;;-2.14;87.38;99278.73;79687;1298;3011765;-64
2023/12/15 07:52:35;;;;;;;12.50;6.30;;;;;;;-2.21;87.80;99272.98;78471;1298;3027902;-64
2023/12/15 07:55:02;;;;;;;10.70;5.20;;;;;;;-2.11;87.75;99287.80;79564;1298;3013481;-65
2023/12/15 07:57:28;;;;;;;10.40;4.60;;;;;;;-2.32;87.77;99288.02;79687;1298;3011462;-64
2023/12/15 07:59:56;;;;;;;6.30;3.70;;;;;;;-2.00;87.71;99303.61;78149;1294;3025691;-67
2023/12/15 08:02:23;;;;;;;8.50;3.80;;;;;;;-1.51;84.60;99317.59;79684;1295;3011646;-65
2023/12/15 08:04:50;;;;;;;11.40;6.40;;;;;;;-1.44;83.41;99324.55;79805;1294;3011928;-70
2023/12/15 08:07:18;;;;;;;8.80;5.90;;;;;;;-1.58;83.13;99323.36;78569;1295;3028491;-67
2023/12/15 08:09:44;;;;;;;15.00;6.60;;;;;;;-1.62;83.01;99310.54;79684;1298;3013103;-67
2023/12/15 08:12:11;;;;;;;11.40;5.60;;;;;;;-1.87;83.39;99304.86;79876;1295;3012689;-71
2023/12/15 08:14:40;;;;;;;13.00;6.40;;;;;;;-2.01;84.16;99310.17;78445;1298;3028336;-65
2023/12/15 08:17:06;;;;;;;10.50;5.10;;;;;;;-2.22;84.71;99311.09;79423;1296;3013166;-65
2023/12/15 08:19:33;;;;;;;9.10;4.90;;;;;;;-2.24;85.05;99321.92;79678;1295;3011532;-65
2023/12/15 08:22:01;;;;;;;10.90;4.90;;;;;;;-2.33;84.27;99332.31;78504;1295;3026189;-66
2023/12/15 08:24:28;;;;;;;7.80;4.60;;;;;;;-2.46;84.40;99349.77;79870;1298;3012811;-72
2023/12/15 08:26:54;;;;;;;7.10;5.10;;;;;;;-2.57;85.19;99354.67;79824;1295;3013554;-67
2023/12/15 08:29:23;;;;;;;9.00;4.00;;;;;;;-2.54;85.65;99356.36;78661;1295;3025572;-65
2023/12/15 08:31:50;;;;;;;11.70;4.50;;;;;;;-1.95;84.60;99348.89;79486;1295;3013169;-67
2023/12/15 08:34:17;;;;;;;11.60;4.20;;;;;;;-1.34;82.40;99333.67;79790;1298;3013544;-66
2023/12/15 08:36:45;;;;;;;11.70;5.60;;;;;;;-1.39;81.52;99328.43;78296;1298;3052987;-64
2023/12/15 08:39:12;;;;;;;14.70;5.50;;;;;;;-1.46;81.51;99328.02;79712;1296;3012604;-69
2023/12/15 08:41:39;;;;;;;16.10;5.70;;;;;;;-1.65;82.02;99367.08;79761;1295;3011457;-71
2023/12/15 08:44:07;;;;;;;15.80;6.80;;;;;;;-1.69;82.36;99387.92;78467;1295;3056436;-68
2023/12/15 08:46:35;;;;;;;18.00;7.60;;;;;;;-1.88;82.70;99395.52;79666;1298;3018308;-68
2023/12/15 08:49:02;;;;;;;15.20;7.30;;;;;;;-1.92;82.87;99374.44;79591;1294;3013554;-61
2023/12/15 08:51:30;;;;;;;17.80;7.40;;;;;;;-2.24;83.10;99343.02;78750;1298;3052862;-68
2023/12/15 08:53:56;;;;;;;24.00;8.60;;;;;;;-2.41;83.78;99325.36;79693;1294;3013302;-68
2023/12/15 08:56:23;;;;;;;17.90;8.70;;;;;;;-2.47;84.43;99337.61;79777;1298;3011509;-67
2023/12/15 08:58:51;;;;;;;16.00;7.50;;;;;;;-2.56;84.43;99367.01;78525;1296;3026041;-66
2023/12/15 09:01:18;;;;;;;11.40;5.50;;;;;;;-2.76;84.37;99389.47;79585;1295;3013128;-70
2023/12/15 09:03:45;;;;;;;10.70;4.70;;;;;;;-2.98;85.20;99374.72;79609;1298;3011530;-67
2023/12/15 09:06:14;;;;;;;10.20;4.50;;;;;;;-2.56;85.46;99367.69;78529;1298;3051014;-65
2023/12/15 09:08:41;;;;;;;6.80;3.90;;;;;;;-2.04;83.43;99374.39;79607;1295;3013338;-67
2023/12/15 09:11:08;;;;;;;13.80;5.20;;;;;;;-1.92;81.76;99367.41;79776;1295;3011622;-63
2023/12/15 09:13:36;;;;;;;15.70;6.40;;;;;;;-2.22;81.49;99377.66;78444;1298;3055936;-61
2023/12/15 09:16:03;;;;;;;8.30;4.20;;;;;;;-2.35;81.69;99372.14;79484;1295;3013565;-62
2023/12/15 09:18:30;;;;;;;10.10;4.70;;;;;;;-2.61;81.60;99377.17;79900;1295;3011627;-63
2023/12/15 09:21:00;;;;;;;9.30;3.90;;;;;;;-2.68;82.16;99394.20;78330;1294;3026655;-61
2023/12/15 09:23:26;;;;;;;7.50;4.90;;;;;;;-2.80;82.48;99414.20;79486;1298;3013006;-62
2023/12/15 09:25:53;;;;;;;16.90;7.20;;;;;;;-2.95;82.53;99423.20;79404;1295;3011662;-61
2023/12/15 09:28:21;;;;;;;18.50;6.40;;;;;;;-3.10;83.26;99406.84;78204;1298;3056354;-62
2023/12/15 09:30:48;;;;;;;21.00;8.10;;;;;;;-3.11;83.09;99407.36;79496;1295;3018515;-60
2023/12/15 09:33:15;;;;;;;17.90;8.50;;;;;;;-3.20;83.23;99411.02;79614;1298;3011785;-60
2023/12/15 09:35:42;;;;;;;19.00;7.80;;;;;;;-3.14;83.73;99415.78;78549;1298;3025218;-61
2023/12/15 09:38:09;;;;;;;14.80;5.20;;;;;;;-3.19;83.84;99414.43;79548;1295;3013336;-63
2023/12/15 09:40:37;;;;;;;13.10;4.30;;;;;;;-2.98;83.74;99418.58;79454;1296;3011925;-62
2023/12/15 09:43:05;;;;;;;11.60;4.70;;;;;;;-2.19;81.63;99406.98;78305;1298;3056028;-63
2023/12/15 09:45:32;;;;;;;10.80;5.20;;;;;;;-2.27;80.24;99413.23;79587;1295;3013171;-62
2023/12/15 09:47:59;;;;;;;13.20;5.90;;;;;;;-2.43;80.31;99414.40;79663;1295;3011898;-64
2023/12/15 09:50:28;;;;;;;19.00;7.10;;;;;;;-2.69;81.40;99434.35;78099;1301;3026283;-62
2023/12/15 09:52:55;;;;;;;16.60;6.30;;;;;;;-2.75;81.65;99421.88;79503;1298;3013952;-64
2023/12/15 09:55:22;;;;;;;15.90;5.50;;;;;;;-2.94;82.59;99424.56;79264;1300;3011520;-62
2023/12/15 09:57:50;;;;;;;16.50;6.20;;;;;;;-2.95;82.62;99436.56;78196;1298;3056005;-64
2023/12/15 10:00:18;;;;;;;21.20;6.30;;;;;;;-3.08;83.27;99432.89;79496;1295;3013699;-64
2023/12/15 10:02:44;;;;;;;13.50;4.30;;;;;;;-3.14;83.15;99418.01;79652;1295;3011406;-61
2023/12/15 10:05:13;;;;;;;16.70;4.80;;;;;;;-3.40;82.43;99417.96;78172;1298;3052884;-61
2023/12/15 10:07:40;;;;;;;15.50;4.30;;;;;;;-3.42;82.57;99409.24;79574;1298;3013717;-62
2023/12/15 10:10:07;;;;;;;9.00;4.20;;;;;;;-3.50;82.82;99405.17;79388;1295;3011611;-61
2023/12/15 10:12:35;;;;;;;15.40;4.70;;;;;;;-3.56;82.65;99413.58;78176;1298;3056858;-61
2023/12/15 10:15:02;;;;;;;20.10;5.40;;;;;;;-3.37;82.32;99426.00;79345;1294;3018668;-65
2023/12/15 10:17:29;;;;;;;7.50;3.00;;;;;;;-3.52;82.08;99424.02;79539;1295;3011784;-64
2023/12/15 10:20:08;;;;;;;9.30;3.70;;;;;;;-3.09;82.16;99439.89;78476;1298;3052727;-63
2023/12/15 10:22:38;;;;;;;12.40;4.00;;;;;;;-2.37;79.73;99446.95;78473;1297;3051297;-64
2023/12/15 10:25:21;;;;;;;11.10;3.60;;;;;;;-2.27;78.70;99465.06;79603;1295;3013646;-65
2023/12/15 10:27:49;;;;;;;5.90;3.20;;;;;;;-2.23;78.13;99465.37;78209;1298;3050816;-64
2023/12/15 10:30:17;;;;;;;11.40;4.50;;;;;;;-2.65;79.09;99478.89;79560;1295;3011724;-65
2023/12/15 10:32:44;;;;;;;8.10;3.20;;;;;;;-2.70;79.49;99496.08;79480;1296;3011828;-66
2023/12/15 10:35:12;;;;;;;8.80;3.50;;;;;;;-3.15;79.82;99515.68;78225;1298;3049653;-63
2023/12/15 10:37:41;;;;;;;6.90;2.80;;;;;;;-3.21;79.67;99496.34;79486;1298;3014592;-60
2023/12/15 10:40:10;;;;;;;13.50;4.20;;;;;;;-3.29;80.60;99460.39;78994;1298;3012971;-67
2023/12/15 10:42:37;;;;;;;10.40;4.50;;;;;;;-3.19;80.87;99461.72;79442;1295;3019530;-69
2023/12/15 10:45:05;;;;;;;17.70;4.00;;;;;;;-3.12;80.90;99487.23;79501;1300;3011631;-66
2023/12/15 10:47:35;;;;;;;11.70;4.00;;;;;;;-3.29;81.27;99505.45;78306;1298;3048580;-66
2023/12/15 10:50:02;;;;;;;9.60;3.60;;;;;;;-3.30;81.94;99507.86;79383;1295;3012956;-62
2023/12/15 10:52:33;;;;;;;17.00;4.50;;;;;;;-3.19;81.61;99497.36;79516;1295;3011495;-65
2023/12/15 10:55:04;;;;;;;13.20;4.50;;;;;;;-3.34;82.24;99507.70;78292;1298;3052452;-64
2023/12/15 10:57:31;;;;;;;14.20;5.30;;;;;;;-3.28;82.49;99514.02;79465;1298;3011900;-62
2023/12/15 11:00:02;;;;;;;14.00;4.90;;;;;;;-3.38;82.80;99521.25;79093;1298;3012750;-63
2023/12/15 11:02:30;;;;;;;13.40;2.60;;;;;;;-3.09;82.94;99526.77;79538;1295;3011962;-65
2023/12/15 11:04:59;;;;;;;9.00;2.60;;;;;;;-2.38;80.52;99531.39;79003;1295;3012946;-65
2023/12/15 11:07:27;;;;;;;9.60;3.30;;;;;;;-2.25;78.96;99541.23;79711;1295;3013876;-65
2023/12/15 11:09:55;;;;;;;12.50;4.10;;;;;;;-1.95;77.94;99559.38;79711;1298;3011935;-66
2023/12/15 11:12:33;;;;;;;15.40;4.40;;;;;;;-2.23;78.10;99557.35;78335;1301;3051955;-62
2023/12/15 11:15:02;;;;;;;14.50;4.10;;;;;;;-2.30;78.17;99557.06;78353;1298;3069077;-64
2023/12/15 11:17:30;;;;;;;12.70;4.00;;;;;;;-2.70;79.58;99574.44;79495;1298;3012893;-66